Time;durP1;ratioP1;P1;durP2;ratioP2;P2;SDS_P1;SDS_P2;PMS_P1;PMS_P2;Temp;Humidity;BMP_temperature;BMP_pressure;BME280_temperature;BME280_humidity;BME280_pressure;Samples;Min_cycle;Max_cycle;Signal;HPM_P1;HPM_P2
2021/01/19 00:00:20;;;;;;;;;;;1.50;99.90;;;;;;5051553;28;19917;-71
2021/01/19 00:02:46;;;;;;;;;;;1.60;99.90;;;;;;5060202;28;19916;-71
2021/01/19 00:05:12;;;;;;;;;;;1.60;99.90;;;;;;5062330;28;20281;-71
2021/01/19 00:07:38;;;;;;;;;;;1.60;99.90;;;;;;5050788;28;19917;-71
2021/01/19 00:10:04;;;;;;;;;;;1.60;99.90;;;;;;5053585;28;19967;-71
2021/01/19 00:12:30;;;;;;;;;;;1.60;99.90;;;;;;5047877;28;19909;-71
2021/01/19 00:14:56;;;;;;;;;;;1.60;99.90;;;;;;5038032;28;19909;-70
2021/01/19 00:17:22;;;;;;;;;;;1.60;99.90;;;;;;5056241;28;19952;-71
2021/01/19 00:19:48;;;;;;;;;;;1.60;99.90;;;;;;5058863;28;19996;-71
2021/01/19 00:22:14;;;;;;;;;;;1.60;99.90;;;;;;5058237;28;19970;-70
2021/01/19 00:24:40;;;;;;;;;;;1.60;99.90;;;;;;5052152;28;19924;-71
2021/01/19 00:27:06;;;;;;;;;;;1.70;99.90;;;;;;5062857;28;20674;-71
2021/01/19 00:29:32;;;;;;;;;;;1.70;99.90;;;;;;5051289;28;19929;-71
2021/01/19 00:31:58;;;;;;;;;;;1.70;99.90;;;;;;5058698;28;19969;-71
2021/01/19 00:34:24;;;;;;;;;;;1.70;99.90;;;;;;5051605;28;19908;-71
2021/01/19 00:36:50;;;;;;;;;;;1.70;99.90;;;;;;5053190;28;19919;-71
2021/01/19 00:39:16;;;;;;;;;;;1.70;99.90;;;;;;5059089;28;19913;-71
2021/01/19 00:41:42;;;;;;;;;;;1.70;99.90;;;;;;5059579;28;19916;-71
2021/01/19 00:44:08;;;;;;;;;;;1.70;99.90;;;;;;5051095;28;19923;-71
2021/01/19 00:46:33;;;;;;;;;;;1.70;99.90;;;;;;5051196;28;19925;-71
2021/01/19 00:48:59;;;;;;;;;;;1.70;99.90;;;;;;5063264;28;19916;-71
2021/01/19 00:51:32;;;;;;;;;;;1.70;99.90;;;;;;5051579;28;19920;-71
2021/01/19 00:53:58;;;;;;;;;;;1.70;99.90;;;;;;5051747;28;19913;-71
2021/01/19 00:56:24;;;;;;;;;;;1.70;99.90;;;;;;5052320;28;19920;-71
2021/01/19 00:58:50;;;;;;;;;;;1.70;99.90;;;;;;5064299;28;19913;-71
2021/01/19 01:01:16;;;;;;;;;;;1.70;99.90;;;;;;5066889;28;19919;-71
2021/01/19 01:03:42;;;;;;;;;;;1.70;99.90;;;;;;5053944;28;20362;-71
2021/01/19 01:06:08;;;;;;;;;;;1.70;99.90;;;;;;5059270;28;20369;-71
2021/01/19 01:08:34;;;;;;;;;;;1.70;99.90;;;;;;5065825;28;19932;-71
2021/01/19 01:11:00;;;;;;;;;;;1.70;99.90;;;;;;5055261;28;19913;-71
2021/01/19 01:13:26;;;;;;;;;;;1.70;99.90;;;;;;5058952;28;19913;-71
2021/01/19 01:15:52;;;;;;;;;;;1.80;99.90;;;;;;5067901;28;19917;-71
2021/01/19 01:18:18;;;;;;;;;;;1.70;99.90;;;;;;5051416;28;19913;-71
2021/01/19 01:20:44;;;;;;;;;;;1.70;99.90;;;;;;5054790;28;20343;-71
2021/01/19 01:23:13;;;;;;;;;;;1.70;99.90;;;;;;5058762;28;20340;-71
2021/01/19 01:25:40;;;;;;;;;;;1.70;99.90;;;;;;5057248;28;19913;-71
2021/01/19 01:28:06;;;;;;;;;;;1.70;99.90;;;;;;5065033;28;19921;-72
2021/01/19 01:30:32;;;;;;;;;;;1.70;99.90;;;;;;5054695;28;19916;-71
2021/01/19 01:32:58;;;;;;;;;;;1.80;99.90;;;;;;5053750;28;19944;-71
2021/01/19 01:35:24;;;;;;;;;;;1.80;99.90;;;;;;5058196;28;19959;-71
2021/01/19 01:37:50;;;;;;;;;;;1.80;99.90;;;;;;5054846;28;19913;-71
2021/01/19 01:40:23;;;;;;;;;;;1.80;99.90;;;;;;5060174;28;19920;-71
2021/01/19 01:42:50;;;;;;;;;;;1.80;99.90;;;;;;5057943;28;19909;-71
2021/01/19 01:45:17;;;;;;;;;;;1.80;99.90;;;;;;5056802;28;19909;-72
2021/01/19 01:47:43;;;;;;;;;;;1.80;99.90;;;;;;5052979;28;19924;-70
2021/01/19 01:50:09;;;;;;;;;;;1.80;99.90;;;;;;5054559;28;19909;-71
2021/01/19 01:52:35;;;;;;;;;;;1.80;99.90;;;;;;5052639;28;19905;-70
2021/01/19 01:55:01;;;;;;;;;;;1.80;99.90;;;;;;5053381;28;19924;-71
2021/01/19 01:57:27;;;;;;;;;;;1.80;99.90;;;;;;5052751;28;20293;-71
2021/01/19 01:59:55;;;;;;;;;;;1.80;99.90;;;;;;5052938;28;19913;-71
2021/01/19 02:02:21;;;;;;;;;;;1.80;99.90;;;;;;5059319;28;19927;-71
2021/01/19 02:04:47;;;;;;;;;;;1.80;99.90;;;;;;5056746;28;19916;-71
2021/01/19 02:07:16;;;;;;;;;;;1.80;99.90;;;;;;5053581;28;19921;-71
2021/01/19 02:09:42;;;;;;;;;;;1.80;99.90;;;;;;5053559;28;19920;-71
2021/01/19 02:12:11;;;;;;;;;;;1.80;99.90;;;;;;5051964;28;19917;-71
2021/01/19 02:14:39;;;;;;;;;;;1.90;99.90;;;;;;5058842;28;19923;-71
2021/01/19 02:17:20;;;;;;;;;;;1.90;99.90;;;;;;5061372;28;19908;-71
2021/01/19 02:19:58;;;;;;;;;;;1.90;99.90;;;;;;5055130;28;19908;-72
2021/01/19 02:22:36;;;;;;;;;;;1.90;99.90;;;;;;5056851;28;19908;-71
2021/01/19 02:25:11;;;;;;;;;;;1.90;99.90;;;;;;5054537;28;20025;-71
2021/01/19 02:27:45;;;;;;;;;;;1.90;99.90;;;;;;5065787;28;19916;-71
2021/01/19 02:30:16;;;;;;;;;;;1.90;99.90;;;;;;5047287;28;19909;-72
2021/01/19 02:32:44;;;;;;;;;;;1.90;99.90;;;;;;5051952;28;19919;-71
2021/01/19 02:35:10;;;;;;;;;;;1.90;99.90;;;;;;5051957;28;19915;-72
2021/01/19 02:37:38;;;;;;;;;;;1.90;99.90;;;;;;5052116;28;19948;-72
2021/01/19 02:40:07;;;;;;;;;;;1.90;99.90;;;;;;5052154;28;19909;-72
2021/01/19 02:42:40;;;;;;;;;;;1.90;99.90;;;;;;5056558;28;19908;-72
2021/01/19 02:45:07;;;;;;;;;;;1.90;99.90;;;;;;5057135;28;19909;-72
2021/01/19 02:47:32;;;;;;;;;;;1.90;99.90;;;;;;5053119;28;20305;-72
2021/01/19 02:49:58;;;;;;;;;;;2.00;99.90;;;;;;5041654;28;19921;-71
2021/01/19 02:52:24;;;;;;;;;;;1.90;99.90;;;;;;5052729;28;19920;-72
2021/01/19 02:54:50;;;;;;;;;;;1.90;99.90;;;;;;5054865;28;19913;-72
2021/01/19 02:57:34;;;;;;;;;;;2.00;99.90;;;;;;5057232;28;19909;-73
2021/01/19 03:00:03;;;;;;;;;;;2.00;99.90;;;;;;5060206;28;19908;-73
2021/01/19 03:02:29;;;;;;;;;;;1.90;99.90;;;;;;5058764;28;19909;-72
2021/01/19 03:04:56;;;;;;;;;;;2.00;99.90;;;;;;5055331;28;19913;-71
2021/01/19 03:07:22;;;;;;;;;;;2.00;99.90;;;;;;5054399;28;19920;-72
2021/01/19 03:09:48;;;;;;;;;;;2.00;99.90;;;;;;5051978;28;19912;-71
2021/01/19 03:12:15;;;;;;;;;;;2.00;99.90;;;;;;5059935;28;19920;-71
2021/01/19 03:14:43;;;;;;;;;;;2.00;99.90;;;;;;5064390;28;20270;-72
2021/01/19 03:17:09;;;;;;;;;;;2.00;99.90;;;;;;5062337;28;19937;-71
2021/01/19 03:19:36;;;;;;;;;;;2.00;99.90;;;;;;5055182;28;19917;-72
2021/01/19 03:22:02;;;;;;;;;;;2.00;99.90;;;;;;5053886;28;19916;-73
2021/01/19 03:24:28;;;;;;;;;;;2.00;99.90;;;;;;5059097;28;20345;-71
2021/01/19 03:26:53;;;;;;;;;;;2.00;99.90;;;;;;5053223;28;19975;-72
2021/01/19 03:29:19;;;;;;;;;;;2.10;99.90;;;;;;5054801;28;19921;-72
2021/01/19 03:31:45;;;;;;;;;;;2.00;99.90;;;;;;5052001;28;19916;-72
2021/01/19 03:34:11;;;;;;;;;;;2.10;99.90;;;;;;5054815;28;19909;-71
2021/01/19 03:36:37;;;;;;;;;;;2.10;99.90;;;;;;5056736;28;19913;-72
2021/01/19 03:39:03;;;;;;;;;;;2.00;99.90;;;;;;5052259;28;19912;-72
2021/01/19 03:41:30;;;;;;;;;;;2.10;99.90;;;;;;5056039;28;19920;-72
2021/01/19 03:43:55;;;;;;;;;;;2.10;99.90;;;;;;5041763;28;20636;-72
2021/01/19 03:46:21;;;;;;;;;;;2.10;99.90;;;;;;5064302;28;19912;-72
2021/01/19 03:48:47;;;;;;;;;;;2.10;99.90;;;;;;5055339;28;19920;-71
2021/01/19 03:51:14;;;;;;;;;;;2.10;99.90;;;;;;5057001;28;19920;-71
2021/01/19 03:53:40;;;;;;;;;;;2.10;99.90;;;;;;5053742;28;19935;-72
2021/01/19 03:56:06;;;;;;;;;;;2.10;99.90;;;;;;5058524;28;20381;-73
2021/01/19 03:58:32;;;;;;;;;;;2.10;99.90;;;;;;5055924;28;20055;-72
2021/01/19 04:00:58;;;;;;;;;;;2.10;99.90;;;;;;5052618;28;19920;-71
2021/01/19 04:03:24;;;;;;;;;;;2.10;99.90;;;;;;5051458;28;19912;-72
2021/01/19 04:05:50;;;;;;;;;;;2.10;99.90;;;;;;5059289;28;19913;-72
2021/01/19 04:08:16;;;;;;;;;;;2.20;99.90;;;;;;5059976;28;19920;-72
2021/01/19 04:10:48;;;;;;;;;;;2.20;99.90;;;;;;5062571;28;19912;-72
2021/01/19 04:13:17;;;;;;;;;;;2.20;99.90;;;;;;5059194;28;19916;-71
2021/01/19 04:15:43;;;;;;;;;;;2.20;99.90;;;;;;5052622;28;19928;-72
2021/01/19 04:18:09;;;;;;;;;;;2.20;99.90;;;;;;5052273;28;19916;-71
2021/01/19 04:20:35;;;;;;;;;;;2.20;99.90;;;;;;5038361;28;19909;-72
2021/01/19 04:23:01;;;;;;;;;;;2.20;99.90;;;;;;5056168;28;20448;-72
2021/01/19 04:25:27;;;;;;;;;;;2.20;99.90;;;;;;5050853;28;19955;-72
2021/01/19 04:27:53;;;;;;;;;;;2.20;99.90;;;;;;5048634;28;19994;-72
2021/01/19 04:30:19;;;;;;;;;;;2.20;99.90;;;;;;5053548;28;19913;-72
2021/01/19 04:32:46;;;;;;;;;;;2.20;99.90;;;;;;5049381;28;20388;-71
2021/01/19 04:35:12;;;;;;;;;;;2.20;99.90;;;;;;5053274;28;19912;-71
2021/01/19 04:37:38;;;;;;;;;;;2.30;99.90;;;;;;5056798;28;19913;-71
2021/01/19 04:40:04;;;;;;;;;;;2.30;99.90;;;;;;5056457;28;19909;-72
2021/01/19 04:42:34;;;;;;;;;;;2.30;99.90;;;;;;5054645;28;19909;-71
2021/01/19 04:45:03;;;;;;;;;;;2.30;99.90;;;;;;5070014;28;19971;-71
2021/01/19 04:47:31;;;;;;;;;;;2.30;99.90;;;;;;5057798;28;19916;-71
2021/01/19 04:49:57;;;;;;;;;;;2.30;99.90;;;;;;5065350;28;19905;-69
2021/01/19 04:52:23;;;;;;;;;;;2.30;99.90;;;;;;5053301;28;19993;-77
2021/01/19 04:55:08;;;;;;;;;;;2.30;99.90;;;;;;5044928;28;19912;-75
2021/01/19 04:57:34;;;;;;;;;;;2.30;99.90;;;;;;5065694;28;19911;-76
2021/01/19 05:00:01;;;;;;;;;;;2.30;99.90;;;;;;5067765;28;19935;-75
2021/01/19 05:02:30;;;;;;;;;;;2.30;99.90;;;;;;5062763;28;19917;-76
2021/01/19 05:05:04;;;;;;;;;;;2.30;99.90;;;;;;5061348;28;19908;-76
2021/01/19 05:07:31;;;;;;;;;;;2.30;99.90;;;;;;5057993;28;19917;-76
2021/01/19 05:10:07;;;;;;;;;;;2.30;99.90;;;;;;5055632;28;19920;-75
2021/01/19 05:12:36;;;;;;;;;;;2.30;99.90;;;;;;5055031;28;19917;-74
2021/01/19 05:15:02;;;;;;;;;;;2.40;99.90;;;;;;5070607;28;20361;-76
2021/01/19 05:17:28;;;;;;;;;;;2.40;99.90;;;;;;5054978;28;19920;-75
2021/01/19 05:19:54;;;;;;;;;;;2.40;99.90;;;;;;5063931;28;19935;-75
2021/01/19 05:22:20;;;;;;;;;;;2.40;99.90;;;;;;5067813;28;19905;-75
2021/01/19 05:24:46;;;;;;;;;;;2.40;99.90;;;;;;5034325;28;19994;-76
2021/01/19 05:27:12;;;;;;;;;;;2.40;99.90;;;;;;5059265;28;19927;-75
2021/01/19 05:29:38;;;;;;;;;;;2.40;99.90;;;;;;5058364;28;19927;-76
2021/01/19 05:32:04;;;;;;;;;;;2.40;99.90;;;;;;5060494;28;19917;-68
2021/01/19 05:34:34;;;;;;;;;;;2.40;99.90;;;;;;5054364;28;19915;-68
2021/01/19 05:37:00;;;;;;;;;;;2.40;99.90;;;;;;5058797;28;19912;-68
2021/01/19 05:39:26;;;;;;;;;;;2.40;99.90;;;;;;5055045;28;19909;-69
2021/01/19 05:41:53;;;;;;;;;;;2.40;99.90;;;;;;5061659;28;19908;-68
2021/01/19 05:44:26;;;;;;;;;;;2.40;99.90;;;;;;5071542;28;19915;-68
2021/01/19 05:46:55;;;;;;;;;;;2.50;99.90;;;;;;5063665;28;19904;-68
2021/01/19 05:49:22;;;;;;;;;;;2.40;99.90;;;;;;5053541;28;19905;-68
2021/01/19 05:51:48;;;;;;;;;;;2.40;99.90;;;;;;5069940;28;19909;-68
2021/01/19 05:54:21;;;;;;;;;;;2.50;99.90;;;;;;5061361;28;19924;-68
2021/01/19 05:56:47;;;;;;;;;;;2.50;99.90;;;;;;5053035;28;19908;-68
2021/01/19 05:59:22;;;;;;;;;;;2.50;99.90;;;;;;5059420;28;19919;-68
2021/01/19 06:01:52;;;;;;;;;;;2.50;99.90;;;;;;5058151;28;19908;-67
2021/01/19 06:04:23;;;;;;;;;;;2.50;99.90;;;;;;5058603;28;19904;-68
2021/01/19 06:06:48;;;;;;;;;;;2.50;99.90;;;;;;5060992;28;19909;-68
2021/01/19 06:09:14;;;;;;;;;;;2.50;99.90;;;;;;5044871;28;19948;-76
2021/01/19 06:11:48;;;;;;;;;;;2.50;99.90;;;;;;5052712;28;19955;-68
2021/01/19 06:14:18;;;;;;;;;;;2.50;99.90;;;;;;5055897;28;19919;-69
2021/01/19 06:16:44;;;;;;;;;;;2.50;99.90;;;;;;5064550;28;19931;-69
2021/01/19 06:19:10;;;;;;;;;;;2.50;99.90;;;;;;5054198;28;20373;-69
2021/01/19 06:21:36;;;;;;;;;;;2.50;99.90;;;;;;5052930;28;19921;-69
2021/01/19 06:24:02;;;;;;;;;;;2.50;99.90;;;;;;5053301;28;19919;-68
2021/01/19 06:26:34;;;;;;;;;;;2.50;99.90;;;;;;5054458;28;19917;-68
2021/01/19 06:29:00;;;;;;;;;;;2.50;99.90;;;;;;5057209;28;19916;-68
2021/01/19 06:31:26;;;;;;;;;;;2.50;99.90;;;;;;5059536;28;19931;-68
2021/01/19 06:33:52;;;;;;;;;;;2.50;99.90;;;;;;5056485;28;20281;-68
2021/01/19 06:36:18;;;;;;;;;;;2.50;99.90;;;;;;5058052;28;20373;-69
2021/01/19 06:38:48;;;;;;;;;;;2.50;99.90;;;;;;5059258;28;19919;-69
2021/01/19 06:41:17;;;;;;;;;;;2.50;99.90;;;;;;5059286;28;19916;-68
2021/01/19 06:43:49;;;;;;;;;;;2.50;99.90;;;;;;5061101;28;19912;-68
2021/01/19 06:46:15;;;;;;;;;;;2.50;99.90;;;;;;5063635;28;19909;-68
2021/01/19 06:48:41;;;;;;;;;;;2.50;99.90;;;;;;5065979;28;19916;-68
2021/01/19 06:51:09;;;;;;;;;;;2.50;99.90;;;;;;5051491;28;19920;-68
2021/01/19 06:53:38;;;;;;;;;;;2.50;99.90;;;;;;5051322;28;19931;-68
2021/01/19 06:56:07;;;;;;;;;;;2.50;99.90;;;;;;5060012;28;19912;-69
2021/01/19 06:58:55;;;;;;;;;;;2.50;99.90;;;;;;5055333;28;19916;-68
2021/01/19 07:01:24;;;;;;;;;;;2.50;99.90;;;;;;5054010;28;20277;-68
2021/01/19 07:04:09;;;;;;;;;;;2.50;99.90;;;;;;5050990;28;19908;-68
2021/01/19 07:06:53;;;;;;;;;;;2.50;99.90;;;;;;5061072;28;19919;-67
2021/01/19 07:09:22;;;;;;;;;;;2.60;99.90;;;;;;5059313;28;19923;-68
2021/01/19 07:11:57;;;;;;;;;;;2.50;99.90;;;;;;5051650;28;20234;-70
2021/01/19 07:14:37;;;;;;;;;;;2.60;99.90;;;;;;5055761;28;20100;-69
2021/01/19 07:17:06;;;;;;;;;;;2.60;99.90;;;;;;5060033;28;20292;-68
2021/01/19 07:19:45;;;;;;;;;;;2.60;99.90;;;;;;5058454;28;19913;-68
2021/01/19 07:22:34;;;;;;;;;;;2.60;99.90;;;;;;5060291;28;19912;-68
2021/01/19 07:25:00;;;;;;;;;;;2.60;99.90;;;;;;5042394;28;19912;-68
2021/01/19 07:27:26;;;;;;;;;;;2.50;99.90;;;;;;5054613;28;19912;-69
2021/01/19 07:29:52;;;;;;;;;;;2.60;99.90;;;;;;5059625;28;19916;-69
2021/01/19 07:32:28;;;;;;;;;;;2.60;99.90;;;;;;5061370;28;19908;-69
2021/01/19 07:34:54;;;;;;;;;;;2.60;99.90;;;;;;5057115;28;19912;-68
2021/01/19 07:37:30;;;;;;;;;;;2.60;99.90;;;;;;5054337;28;20310;-68
2021/01/19 07:39:56;;;;;;;;;;;2.60;99.90;;;;;;5051162;28;20285;-68
2021/01/19 07:42:22;;;;;;;;;;;2.60;99.90;;;;;;5052506;28;20008;-68
2021/01/19 07:44:54;;;;;;;;;;;2.60;99.90;;;;;;5052831;28;19912;-68
2021/01/19 07:47:20;;;;;;;;;;;2.50;99.90;;;;;;5053256;28;19935;-68
2021/01/19 07:49:46;;;;;;;;;;;2.50;99.90;;;;;;5051154;28;19955;-69
2021/01/19 07:52:13;;;;;;;;;;;2.60;99.90;;;;;;5054231;28;19963;-68
2021/01/19 07:54:39;;;;;;;;;;;2.50;99.90;;;;;;5051573;28;19916;-68
2021/01/19 07:57:12;;;;;;;;;;;2.50;99.90;;;;;;5050701;28;19908;-69
2021/01/19 07:59:38;;;;;;;;;;;2.50;99.90;;;;;;5047800;28;19916;-68
2021/01/19 08:02:04;;;;;;;;;;;2.40;99.90;;;;;;5061062;28;19923;-68
2021/01/19 08:04:34;;;;;;;;;;;2.40;99.90;;;;;;5054278;28;19912;-68
2021/01/19 08:07:10;;;;;;;;;;;2.40;99.90;;;;;;5059806;28;19917;-68
2021/01/19 08:09:36;;;;;;;;;;;2.40;99.90;;;;;;5048538;28;19921;-68
2021/01/19 08:12:06;;;;;;;;;;;2.40;99.90;;;;;;5052264;28;19916;-68
2021/01/19 08:14:33;;;;;;;;;;;2.30;99.90;;;;;;5052459;28;19930;-68
2021/01/19 08:17:00;;;;;;;;;;;2.30;99.90;;;;;;5061692;28;19920;-68
2021/01/19 08:19:30;;;;;;;;;;;2.30;99.90;;;;;;5050869;28;19916;-69
2021/01/19 08:21:56;;;;;;;;;;;2.30;99.90;;;;;;5052326;28;19915;-68
2021/01/19 08:24:22;;;;;;;;;;;2.20;99.90;;;;;;5061779;28;20292;-67
2021/01/19 08:26:48;;;;;;;;;;;2.20;99.90;;;;;;5051851;28;19921;-68
2021/01/19 08:29:17;;;;;;;;;;;2.20;99.90;;;;;;5051513;28;19931;-68
2021/01/19 08:31:43;;;;;;;;;;;2.20;99.90;;;;;;5057362;28;19915;-68
2021/01/19 08:34:09;;;;;;;;;;;2.20;99.90;;;;;;5055873;28;19912;-68
2021/01/19 08:36:35;;;;;;;;;;;2.20;99.90;;;;;;5050849;28;19915;-68
2021/01/19 08:39:03;;;;;;;;;;;2.10;99.90;;;;;;5058851;28;19912;-69
2021/01/19 08:41:29;;;;;;;;;;;2.10;99.90;;;;;;5058097;28;19909;-69
2021/01/19 08:43:56;;;;;;;;;;;2.10;99.90;;;;;;5044242;28;19913;-68
2021/01/19 08:46:22;;;;;;;;;;;2.10;99.90;;;;;;5051405;28;19927;-68
2021/01/19 08:48:49;;;;;;;;;;;2.10;99.90;;;;;;5048460;28;19921;-68
2021/01/19 08:51:20;;;;;;;;;;;2.10;99.90;;;;;;5049386;28;19921;-69
2021/01/19 08:53:46;;;;;;;;;;;2.10;99.90;;;;;;5052569;28;19912;-68
2021/01/19 08:56:18;;;;;;;;;;;2.10;99.90;;;;;;5050910;28;19913;-69
2021/01/19 08:58:44;;;;;;;;;;;2.20;99.90;;;;;;5047053;28;19913;-69
2021/01/19 09:01:10;;;;;;;;;;;2.20;99.90;;;;;;5045896;28;19920;-68
2021/01/19 09:03:36;;;;;;;;;;;2.20;99.90;;;;;;5047109;28;19924;-68
2021/01/19 09:06:02;;;;;;;;;;;2.20;99.90;;;;;;5040157;28;19917;-69
2021/01/19 09:08:28;;;;;;;;;;;2.20;99.90;;;;;;5045141;28;20277;-69
2021/01/19 09:11:10;;;;;;;;;;;2.20;99.90;;;;;;5046620;28;19971;-68
2021/01/19 09:13:41;;;;;;;;;;;2.30;99.90;;;;;;5054195;28;19909;-68
2021/01/19 09:16:08;;;;;;;;;;;2.30;99.90;;;;;;5036677;28;19916;-68
2021/01/19 09:18:34;;;;;;;;;;;2.20;99.90;;;;;;5044773;28;19915;-68
2021/01/19 09:21:00;;;;;;;;;;;2.20;99.90;;;;;;5053052;28;20224;-69
2021/01/19 09:23:29;;;;;;;;;;;2.20;99.90;;;;;;5050806;28;19913;-69
2021/01/19 09:26:00;;;;;;;;;;;2.20;99.90;;;;;;5049662;28;19917;-69
2021/01/19 09:28:26;;;;;;;;;;;2.20;99.90;;;;;;5047959;28;19920;-69
2021/01/19 09:30:52;;;;;;;;;;;2.20;99.90;;;;;;5053014;28;19920;-69
2021/01/19 09:33:18;;;;;;;;;;;2.20;99.90;;;;;;5045709;28;20413;-69
2021/01/19 09:35:44;;;;;;;;;;;2.20;99.90;;;;;;5049409;28;19937;-68
2021/01/19 09:38:13;;;;;;;;;;;2.20;99.90;;;;;;5053628;28;19924;-69
2021/01/19 09:40:40;;;;;;;;;;;2.20;99.90;;;;;;5053947;28;19920;-69
2021/01/19 09:43:06;;;;;;;;;;;2.20;99.90;;;;;;5061346;28;20270;-69
2021/01/19 09:45:33;;;;;;;;;;;2.20;99.90;;;;;;5058331;28;20289;-69
2021/01/19 09:47:59;;;;;;;;;;;2.20;99.90;;;;;;5071330;28;19924;-69
2021/01/19 09:50:25;;;;;;;;;;;2.20;99.90;;;;;;5048879;28;19917;-69
2021/01/19 09:52:51;;;;;;;;;;;2.20;99.90;;;;;;5049229;28;19917;-69
2021/01/19 09:55:17;;;;;;;;;;;2.20;99.90;;;;;;5048248;28;19965;-70
2021/01/19 09:57:43;;;;;;;;;;;2.20;99.90;;;;;;5048452;28;19908;-70
2021/01/19 10:00:10;;;;;;;;;;;2.20;99.90;;;;;;5048163;28;19915;-70
2021/01/19 10:02:38;;;;;;;;;;;2.20;99.90;;;;;;5047862;28;19913;-71
2021/01/19 10:05:05;;;;;;;;;;;2.10;99.90;;;;;;5045514;28;19919;-71
2021/01/19 10:07:31;;;;;;;;;;;2.00;99.90;;;;;;5047850;28;19908;-71
2021/01/19 10:10:10;;;;;;;;;;;1.90;99.90;;;;;;5051686;28;19921;-72
2021/01/19 10:12:35;;;;;;;;;;;1.90;99.90;;;;;;5048052;28;20277;-71
2021/01/19 10:15:01;;;;;;;;;;;1.90;99.90;;;;;;5052826;28;19944;-72
2021/01/19 10:17:30;;;;;;;;;;;1.90;99.90;;;;;;5049192;28;19982;-71
2021/01/19 10:20:06;;;;;;;;;;;1.90;99.90;;;;;;5051762;28;19909;-75
2021/01/19 10:22:31;;;;;;;;;;;1.90;99.90;;;;;;5054850;28;20289;-71
2021/01/19 10:24:57;;;;;;;;;;;1.90;99.90;;;;;;5054755;28;19912;-71
2021/01/19 10:27:23;;;;;;;;;;;1.90;99.90;;;;;;5052758;28;20285;-70
2021/01/19 10:29:50;;;;;;;;;;;1.90;99.90;;;;;;5051439;28;20381;-71
2021/01/19 10:32:16;;;;;;;;;;;1.90;99.90;;;;;;5036736;28;19909;-70
2021/01/19 10:34:49;;;;;;;;;;;1.90;99.90;;;;;;5054418;28;19913;-71
2021/01/19 10:37:15;;;;;;;;;;;2.00;99.90;;;;;;5051799;28;19917;-71
2021/01/19 10:39:48;;;;;;;;;;;2.00;99.90;;;;;;5053630;28;19936;-71
2021/01/19 10:42:23;;;;;;;;;;;2.00;99.90;;;;;;5055773;28;19909;-71
2021/01/19 10:44:53;;;;;;;;;;;2.00;99.90;;;;;;5052971;28;19909;-70
2021/01/19 10:47:20;;;;;;;;;;;2.10;99.90;;;;;;5046895;28;19916;-71
2021/01/19 10:49:45;;;;;;;;;;;2.10;99.90;;;;;;5049284;28;19926;-70
2021/01/19 10:52:12;;;;;;;;;;;2.10;99.90;;;;;;5043795;28;20297;-70
2021/01/19 10:54:38;;;;;;;;;;;2.10;99.90;;;;;;5051130;28;19920;-71
2021/01/19 10:57:05;;;;;;;;;;;2.10;99.90;;;;;;5049694;28;19920;-71
2021/01/19 10:59:31;;;;;;;;;;;2.10;99.90;;;;;;5054867;28;19915;-71
2021/01/19 11:01:57;;;;;;;;;;;2.10;99.90;;;;;;5054973;28;19913;-71
2021/01/19 11:04:23;;;;;;;;;;;2.10;99.90;;;;;;5050767;28;19916;-71
2021/01/19 11:06:49;;;;;;;;;;;2.00;99.90;;;;;;5051332;28;19912;-70
2021/01/19 11:09:15;;;;;;;;;;;2.00;99.90;;;;;;5047387;28;19979;-70
2021/01/19 11:11:41;;;;;;;;;;;2.00;99.90;;;;;;5047184;28;19963;-71
2021/01/19 11:14:07;;;;;;;;;;;2.00;99.90;;;;;;5052438;28;19971;-70
2021/01/19 11:16:34;;;;;;;;;;;2.00;99.90;;;;;;5054406;28;19908;-70
2021/01/19 11:19:01;;;;;;;;;;;2.00;99.90;;;;;;5061523;28;19917;-70
2021/01/19 11:21:27;;;;;;;;;;;2.00;99.90;;;;;;5052606;28;19909;-70
2021/01/19 11:23:53;;;;;;;;;;;1.90;99.90;;;;;;5058925;28;19917;-71
2021/01/19 11:26:19;;;;;;;;;;;1.90;99.90;;;;;;5057736;28;20281;-71
2021/01/19 11:28:45;;;;;;;;;;;1.80;99.90;;;;;;5050307;28;19964;-72
2021/01/19 11:31:11;;;;;;;;;;;1.70;99.90;;;;;;5050975;28;20320;-72
2021/01/19 11:33:37;;;;;;;;;;;1.70;99.90;;;;;;5043994;28;19916;-72
2021/01/19 11:36:03;;;;;;;;;;;1.70;99.90;;;;;;5041405;28;19916;-71
2021/01/19 11:38:30;;;;;;;;;;;1.70;99.90;;;;;;5049273;28;19928;-71
2021/01/19 11:40:55;;;;;;;;;;;1.70;99.90;;;;;;5044335;28;19909;-71
2021/01/19 11:43:21;;;;;;;;;;;1.70;99.90;;;;;;5045509;28;19916;-71
2021/01/19 11:45:47;;;;;;;;;;;1.70;99.90;;;;;;5045941;28;19912;-71
2021/01/19 11:48:13;;;;;;;;;;;1.70;99.90;;;;;;5046075;28;19931;-72
2021/01/19 11:50:39;;;;;;;;;;;1.70;99.90;;;;;;5047459;28;19916;-71
2021/01/19 11:53:05;;;;;;;;;;;1.70;99.90;;;;;;5049456;28;19939;-71
2021/01/19 11:55:31;;;;;;;;;;;1.70;99.90;;;;;;5048884;28;19951;-71
2021/01/19 11:57:57;;;;;;;;;;;1.80;99.90;;;;;;5048113;28;20357;-71
2021/01/19 12:00:23;;;;;;;;;;;1.80;99.90;;;;;;5056322;28;19912;-71
2021/01/19 12:02:49;;;;;;;;;;;1.80;99.90;;;;;;5047010;28;19913;-71
2021/01/19 12:05:15;;;;;;;;;;;1.90;99.90;;;;;;5044216;28;19916;-71
2021/01/19 12:07:41;;;;;;;;;;;1.80;99.90;;;;;;5043827;28;19913;-71
2021/01/19 12:10:07;;;;;;;;;;;1.90;99.90;;;;;;5051217;28;20346;-71
2021/01/19 12:12:34;;;;;;;;;;;1.90;99.90;;;;;;5053842;28;20342;-71
2021/01/19 12:15:00;;;;;;;;;;;1.90;99.90;;;;;;5055207;28;20357;-71
2021/01/19 12:17:26;;;;;;;;;;;2.00;99.90;;;;;;5059990;28;19912;-71
2021/01/19 12:19:52;;;;;;;;;;;2.00;99.90;;;;;;5050859;28;19920;-70
2021/01/19 12:22:18;;;;;;;;;;;2.00;99.90;;;;;;5057851;28;19912;-70
2021/01/19 12:24:44;;;;;;;;;;;2.00;99.90;;;;;;5059020;28;19948;-70
2021/01/19 12:27:10;;;;;;;;;;;2.00;99.90;;;;;;5057911;28;19917;-70
2021/01/19 12:29:36;;;;;;;;;;;2.00;99.90;;;;;;5049474;28;19932;-70
2021/01/19 12:32:04;;;;;;;;;;;2.00;99.90;;;;;;5051988;28;19978;-70
2021/01/19 12:34:30;;;;;;;;;;;2.10;99.90;;;;;;5052080;28;19909;-71
2021/01/19 12:36:56;;;;;;;;;;;2.10;99.90;;;;;;5049797;28;19909;-70
2021/01/19 12:39:22;;;;;;;;;;;2.10;99.90;;;;;;5049795;28;19912;-71
2021/01/19 12:41:48;;;;;;;;;;;2.10;99.90;;;;;;5052673;28;20357;-70
2021/01/19 12:44:14;;;;;;;;;;;2.10;99.90;;;;;;5054958;28;19923;-72
2021/01/19 12:46:40;;;;;;;;;;;2.10;99.90;;;;;;5053113;28;20024;-75
2021/01/19 12:49:06;;;;;;;;;;;2.10;99.90;;;;;;5056886;28;19920;-71
2021/01/19 12:51:32;;;;;;;;;;;2.10;99.90;;;;;;5055332;28;19923;-71
2021/01/19 12:53:58;;;;;;;;;;;2.10;99.90;;;;;;5060251;28;19913;-71
2021/01/19 12:56:24;;;;;;;;;;;2.20;99.90;;;;;;5060823;28;19991;-71
2021/01/19 12:58:51;;;;;;;;;;;2.20;99.90;;;;;;5056775;28;19912;-71
2021/01/19 13:01:16;;;;;;;;;;;2.20;99.90;;;;;;5051369;28;19913;-71
2021/01/19 13:03:42;;;;;;;;;;;2.20;99.90;;;;;;5049653;28;19936;-71
2021/01/19 13:06:09;;;;;;;;;;;2.20;99.90;;;;;;5046783;28;20301;-71
2021/01/19 13:08:35;;;;;;;;;;;2.20;99.90;;;;;;5050942;28;19926;-71
2021/01/19 13:11:01;;;;;;;;;;;2.20;99.90;;;;;;5045453;28;19939;-71
2021/01/19 13:13:27;;;;;;;;;;;2.20;99.90;;;;;;5051940;28;19917;-70
2021/01/19 13:15:53;;;;;;;;;;;2.20;99.90;;;;;;5049559;28;19913;-71
2021/01/19 13:18:19;;;;;;;;;;;2.20;99.90;;;;;;5045123;28;19932;-71
2021/01/19 13:20:45;;;;;;;;;;;2.20;99.90;;;;;;5038946;28;19916;-71
2021/01/19 13:23:11;;;;;;;;;;;2.20;99.90;;;;;;5049908;28;19917;-71
2021/01/19 13:25:37;;;;;;;;;;;2.30;99.90;;;;;;5049561;28;19913;-70
2021/01/19 13:28:03;;;;;;;;;;;2.30;99.90;;;;;;5046879;28;19934;-71
2021/01/19 13:30:29;;;;;;;;;;;2.30;99.90;;;;;;5042127;28;19946;-71
2021/01/19 13:32:55;;;;;;;;;;;2.30;99.90;;;;;;5051376;28;19924;-71
2021/01/19 13:35:21;;;;;;;;;;;2.30;99.90;;;;;;5055038;28;19913;-71
2021/01/19 13:37:47;;;;;;;;;;;2.30;99.90;;;;;;5050843;28;19921;-71
2021/01/19 13:40:13;;;;;;;;;;;2.30;99.90;;;;;;5050495;28;19966;-71
2021/01/19 13:42:39;;;;;;;;;;;2.40;99.90;;;;;;5051220;28;20281;-71
2021/01/19 13:45:05;;;;;;;;;;;2.30;99.90;;;;;;5048782;28;19916;-70
2021/01/19 13:47:31;;;;;;;;;;;2.30;99.90;;;;;;5054370;28;19908;-71
2021/01/19 13:49:57;;;;;;;;;;;2.40;99.90;;;;;;5049954;28;19921;-71
2021/01/19 13:52:23;;;;;;;;;;;2.40;99.90;;;;;;5051824;28;19979;-71
2021/01/19 13:54:49;;;;;;;;;;;2.30;99.90;;;;;;5048854;28;20004;-71
2021/01/19 13:57:15;;;;;;;;;;;2.40;99.90;;;;;;5045248;28;19917;-70
2021/01/19 13:59:41;;;;;;;;;;;2.40;99.90;;;;;;5052257;28;19912;-71
2021/01/19 14:02:07;;;;;;;;;;;2.40;99.90;;;;;;5051925;28;20007;-71
2021/01/19 14:04:33;;;;;;;;;;;2.40;99.90;;;;;;5051858;28;19916;-71
2021/01/19 14:06:59;;;;;;;;;;;2.40;99.90;;;;;;5052336;28;19939;-70
2021/01/19 14:09:25;;;;;;;;;;;2.50;99.90;;;;;;5050679;28;20205;-71
2021/01/19 14:11:51;;;;;;;;;;;2.40;99.90;;;;;;5049590;28;19947;-70
2021/01/19 14:14:20;;;;;;;;;;;2.40;99.90;;;;;;5051417;28;19966;-70
2021/01/19 14:16:47;;;;;;;;;;;2.40;99.90;;;;;;5048506;28;19912;-70
2021/01/19 14:19:13;;;;;;;;;;;2.40;99.90;;;;;;5049077;28;19912;-71
2021/01/19 14:21:39;;;;;;;;;;;2.40;99.90;;;;;;5044680;28;19913;-71
2021/01/19 14:24:05;;;;;;;;;;;2.50;99.90;;;;;;5043465;28;19913;-71
2021/01/19 14:26:34;;;;;;;;;;;2.50;99.90;;;;;;5051233;28;19920;-71
2021/01/19 14:29:03;;;;;;;;;;;2.50;99.90;;;;;;5049757;28;19917;-70
2021/01/19 14:31:35;;;;;;;;;;;2.50;99.90;;;;;;5033280;28;19913;-70